Terminal Aerodrome Forecast
Issued by NWS Sterling, VA

Current Version | Previous Version | Graphics & Text | Print | Product List | Glossary On
Versions: 1 2 3 4 5 6 7 8 9 10 11 12 13 14 15 16 17 18 19 20 21 22 23
324
FTUS41 KLWX 082341
TAFIAD
TAF
KIAD 082341Z 0900/1006 00000KT P6SM OVC100
     FM090600 00000KT 4SM -SN BR OVC060
     FM090900 00000KT 3/4SM -SN BR OVC010
     FM091200 00000KT 1/2SM SN OVC010
     FM091800 05004KT 1SM -SN BR OVC010
     FM092000 32004KT 1SM -SN BR OVC010
     FM100000 VRB03KT 4SM BR BKN015
     FM100300 27005KT 6SM BR BKN090
     FM100500 28006KT 6SM BR SCT080=

USA.gov is the U.S. government's official web portal to all federal, state and local government web resources and services.